sensor_id;sensor_type;location;lat;lon;timestamp;temperature;humidity
48328;DHT22;34136;51.022;7.082;2023-08-31T00:00:00;13.20;1.00
48328;DHT22;34136;51.022;7.082;2023-08-31T00:02:46;13.10;1.00
48328;DHT22;34136;51.022;7.082;2023-08-31T00:05:32;13.20;1.00
48328;DHT22;34136;51.022;7.082;2023-08-31T00:08:18;13.20;1.00
48328;DHT22;34136;51.022;7.082;2023-08-31T00:11:04;13.30;1.00
48328;DHT22;34136;51.022;7.082;2023-08-31T00:13:50;13.30;1.00
48328;DHT22;34136;51.022;7.082;2023-08-31T00:16:36;13.30;1.00
48328;DHT22;34136;51.022;7.082;2023-08-31T00:19:22;13.30;1.00
48328;DHT22;34136;51.022;7.082;2023-08-31T00:22:08;13.30;1.00
48328;DHT22;34136;51.022;7.082;2023-08-31T00:24:54;13.40;1.00
48328;DHT22;34136;51.022;7.082;2023-08-31T00:27:40;13.40;1.00
48328;DHT22;34136;51.022;7.082;2023-08-31T00:30:27;13.40;1.00
48328;DHT22;34136;51.022;7.082;2023-08-31T00:33:13;13.30;1.00
48328;DHT22;34136;51.022;7.082;2023-08-31T00:36:02;13.30;1.00
48328;DHT22;34136;51.022;7.082;2023-08-31T00:38:48;13.40;1.00
48328;DHT22;34136;51.022;7.082;2023-08-31T00:41:34;13.40;1.00
48328;DHT22;34136;51.022;7.082;2023-08-31T00:44:20;13.40;1.00
48328;DHT22;34136;51.022;7.082;2023-08-31T00:47:08;13.30;1.00
48328;DHT22;34136;51.022;7.082;2023-08-31T00:49:54;13.20;1.00
48328;DHT22;34136;51.022;7.082;2023-08-31T00:52:41;13.30;1.00
48328;DHT22;34136;51.022;7.082;2023-08-31T00:55:28;13.20;1.00
48328;DHT22;34136;51.022;7.082;2023-08-31T00:58:14;13.20;1.00
48328;DHT22;34136;51.022;7.082;2023-08-31T01:04:32;13.20;1.00
48328;DHT22;34136;51.022;7.082;2023-08-31T01:07:48;13.10;1.00
48328;DHT22;34136;51.022;7.082;2023-08-31T01:13:31;13.10;1.00
48328;DHT22;34136;51.022;7.082;2023-08-31T01:16:19;13.10;1.00
48328;DHT22;34136;51.022;7.082;2023-08-31T01:19:23;13.10;1.00
48328;DHT22;34136;51.022;7.082;2023-08-31T01:22:21;13.20;1.00
48328;DHT22;34136;51.022;7.082;2023-08-31T01:25:08;13.20;1.00
48328;DHT22;34136;51.022;7.082;2023-08-31T01:27:55;13.10;1.00
48328;DHT22;34136;51.022;7.082;2023-08-31T01:30:41;13.10;1.00
48328;DHT22;34136;51.022;7.082;2023-08-31T01:33:27;13.10;1.00
48328;DHT22;34136;51.022;7.082;2023-08-31T01:36:26;13.10;1.00
48328;DHT22;34136;51.022;7.082;2023-08-31T01:39:41;13.10;1.00
48328;DHT22;34136;51.022;7.082;2023-08-31T01:42:33;13.00;1.00
48328;DHT22;34136;51.022;7.082;2023-08-31T01:45:22;13.00;1.00
48328;DHT22;34136;51.022;7.082;2023-08-31T01:48:08;13.00;1.00
48328;DHT22;34136;51.022;7.082;2023-08-31T01:50:56;13.10;1.00
48328;DHT22;34136;51.022;7.082;2023-08-31T01:53:43;13.10;1.00
48328;DHT22;34136;51.022;7.082;2023-08-31T01:56:29;13.10;1.00
48328;DHT22;34136;51.022;7.082;2023-08-31T01:59:15;13.10;1.00
48328;DHT22;34136;51.022;7.082;2023-08-31T02:02:01;13.10;1.00
48328;DHT22;34136;51.022;7.082;2023-08-31T02:04:48;13.10;1.00
48328;DHT22;34136;51.022;7.082;2023-08-31T02:07:34;13.10;1.00
48328;DHT22;34136;51.022;7.082;2023-08-31T02:10:21;13.00;1.00
48328;DHT22;34136;51.022;7.082;2023-08-31T02:13:07;13.00;1.00
48328;DHT22;34136;51.022;7.082;2023-08-31T02:15:54;13.00;1.00
48328;DHT22;34136;51.022;7.082;2023-08-31T02:18:40;13.00;1.00
48328;DHT22;34136;51.022;7.082;2023-08-31T02:21:26;12.90;1.00
48328;DHT22;34136;51.022;7.082;2023-08-31T02:24:12;12.80;1.00
48328;DHT22;34136;51.022;7.082;2023-08-31T02:27:00;12.80;1.00
48328;DHT22;34136;51.022;7.082;2023-08-31T02:29:46;12.80;1.00
48328;DHT22;34136;51.022;7.082;2023-08-31T02:32:32;12.80;1.00
48328;DHT22;34136;51.022;7.082;2023-08-31T02:35:19;12.80;1.00
48328;DHT22;34136;51.022;7.082;2023-08-31T02:38:05;12.70;1.00
48328;DHT22;34136;51.022;7.082;2023-08-31T02:40:51;12.60;1.00
48328;DHT22;34136;51.022;7.082;2023-08-31T02:43:38;12.60;1.00
48328;DHT22;34136;51.022;7.082;2023-08-31T02:46:24;12.60;1.00
48328;DHT22;34136;51.022;7.082;2023-08-31T02:49:11;12.50;1.00
48328;DHT22;34136;51.022;7.082;2023-08-31T02:51:56;12.50;1.00
48328;DHT22;34136;51.022;7.082;2023-08-31T02:54:42;12.40;1.00
48328;DHT22;34136;51.022;7.082;2023-08-31T02:57:28;12.40;1.00
48328;DHT22;34136;51.022;7.082;2023-08-31T03:00:15;12.40;1.00
48328;DHT22;34136;51.022;7.082;2023-08-31T03:03:01;12.30;1.00
48328;DHT22;34136;51.022;7.082;2023-08-31T03:05:48;12.30;1.00
48328;DHT22;34136;51.022;7.082;2023-08-31T03:08:40;12.30;1.00
48328;DHT22;34136;51.022;7.082;2023-08-31T03:11:27;12.30;1.00
48328;DHT22;34136;51.022;7.082;2023-08-31T03:14:13;12.30;1.00
48328;DHT22;34136;51.022;7.082;2023-08-31T03:16:59;12.20;1.00
48328;DHT22;34136;51.022;7.082;2023-08-31T03:19:45;12.30;1.00
48328;DHT22;34136;51.022;7.082;2023-08-31T03:22:32;12.30;1.00
48328;DHT22;34136;51.022;7.082;2023-08-31T03:25:18;12.30;1.00
48328;DHT22;34136;51.022;7.082;2023-08-31T03:28:04;12.30;1.00
48328;DHT22;34136;51.022;7.082;2023-08-31T03:30:55;12.30;1.00
48328;DHT22;34136;51.022;7.082;2023-08-31T03:33:42;12.30;1.00
48328;DHT22;34136;51.022;7.082;2023-08-31T03:36:27;12.30;1.00
48328;DHT22;34136;51.022;7.082;2023-08-31T03:39:14;12.30;1.00
48328;DHT22;34136;51.022;7.082;2023-08-31T03:42:00;12.40;1.00
48328;DHT22;34136;51.022;7.082;2023-08-31T03:44:46;12.40;1.00
48328;DHT22;34136;51.022;7.082;2023-08-31T03:47:36;12.40;1.00
48328;DHT22;34136;51.022;7.082;2023-08-31T03:50:22;12.30;1.00
48328;DHT22;34136;51.022;7.082;2023-08-31T03:53:08;12.20;1.00
48328;DHT22;34136;51.022;7.082;2023-08-31T03:55:54;12.30;1.00
48328;DHT22;34136;51.022;7.082;2023-08-31T03:58:42;12.40;1.00
48328;DHT22;34136;51.022;7.082;2023-08-31T04:01:28;12.50;1.00
48328;DHT22;34136;51.022;7.082;2023-08-31T04:04:14;12.40;1.00
48328;DHT22;34136;51.022;7.082;2023-08-31T04:07:01;12.40;1.00
48328;DHT22;34136;51.022;7.082;2023-08-31T04:09:47;12.40;1.00
48328;DHT22;34136;51.022;7.082;2023-08-31T04:12:34;12.40;1.00
48328;DHT22;34136;51.022;7.082;2023-08-31T04:15:20;12.40;1.00
48328;DHT22;34136;51.022;7.082;2023-08-31T04:18:06;12.50;1.00
48328;DHT22;34136;51.022;7.082;2023-08-31T04:20:53;12.50;1.00
48328;DHT22;34136;51.022;7.082;2023-08-31T04:23:39;12.60;1.00
48328;DHT22;34136;51.022;7.082;2023-08-31T04:26:26;12.60;1.00
48328;DHT22;34136;51.022;7.082;2023-08-31T04:29:12;12.70;1.00
48328;DHT22;34136;51.022;7.082;2023-08-31T04:31:58;12.80;1.00
48328;DHT22;34136;51.022;7.082;2023-08-31T04:34:44;12.90;1.00
48328;DHT22;34136;51.022;7.082;2023-08-31T04:37:32;13.00;1.00
48328;DHT22;34136;51.022;7.082;2023-08-31T04:40:18;13.10;1.00
48328;DHT22;34136;51.022;7.082;2023-08-31T04:43:04;13.10;1.00
48328;DHT22;34136;51.022;7.082;2023-08-31T04:45:51;13.10;1.00
48328;DHT22;34136;51.022;7.082;2023-08-31T04:48:38;13.10;1.00
48328;DHT22;34136;51.022;7.082;2023-08-31T04:51:44;13.10;1.00
48328;DHT22;34136;51.022;7.082;2023-08-31T04:54:30;13.10;1.00
48328;DHT22;34136;51.022;7.082;2023-08-31T04:57:16;13.00;1.00
48328;DHT22;34136;51.022;7.082;2023-08-31T05:00:03;13.00;1.00
48328;DHT22;34136;51.022;7.082;2023-08-31T05:02:49;13.00;1.00
48328;DHT22;34136;51.022;7.082;2023-08-31T05:05:35;13.10;1.00
48328;DHT22;34136;51.022;7.082;2023-08-31T05:08:21;13.10;1.00
48328;DHT22;34136;51.022;7.082;2023-08-31T05:11:07;13.00;1.00
48328;DHT22;34136;51.022;7.082;2023-08-31T05:13:54;13.10;1.00
48328;DHT22;34136;51.022;7.082;2023-08-31T05:16:40;13.10;1.00
48328;DHT22;34136;51.022;7.082;2023-08-31T05:19:26;13.20;1.00
48328;DHT22;34136;51.022;7.082;2023-08-31T05:22:11;13.30;1.00
48328;DHT22;34136;51.022;7.082;2023-08-31T05:24:57;13.40;1.00
48328;DHT22;34136;51.022;7.082;2023-08-31T05:27:43;13.40;1.00
48328;DHT22;34136;51.022;7.082;2023-08-31T05:30:30;13.40;1.00
48328;DHT22;34136;51.022;7.082;2023-08-31T05:33:17;13.40;1.00
48328;DHT22;34136;51.022;7.082;2023-08-31T05:36:03;13.40;1.00
48328;DHT22;34136;51.022;7.082;2023-08-31T05:38:53;13.50;1.00
48328;DHT22;34136;51.022;7.082;2023-08-31T05:41:43;13.50;1.00
48328;DHT22;34136;51.022;7.082;2023-08-31T05:44:29;13.50;1.00
48328;DHT22;34136;51.022;7.082;2023-08-31T05:47:15;13.50;1.00
48328;DHT22;34136;51.022;7.082;2023-08-31T05:50:02;13.40;1.00
48328;DHT22;34136;51.022;7.082;2023-08-31T05:52:48;13.40;1.00
48328;DHT22;34136;51.022;7.082;2023-08-31T05:55:34;13.50;1.00
48328;DHT22;34136;51.022;7.082;2023-08-31T05:58:20;13.40;1.00
48328;DHT22;34136;51.022;7.082;2023-08-31T06:01:06;13.50;1.00
48328;DHT22;34136;51.022;7.082;2023-08-31T06:03:53;13.60;1.00
48328;DHT22;34136;51.022;7.082;2023-08-31T06:06:39;13.60;1.00
48328;DHT22;34136;51.022;7.082;2023-08-31T06:09:25;13.60;1.00
48328;DHT22;34136;51.022;7.082;2023-08-31T06:12:11;13.60;1.00
48328;DHT22;34136;51.022;7.082;2023-08-31T06:14:58;13.60;1.00
48328;DHT22;34136;51.022;7.082;2023-08-31T06:17:44;13.60;1.00
48328;DHT22;34136;51.022;7.082;2023-08-31T06:20:31;13.70;1.00
48328;DHT22;34136;51.022;7.082;2023-08-31T06:23:17;13.70;1.00
48328;DHT22;34136;51.022;7.082;2023-08-31T06:26:03;13.70;1.00
48328;DHT22;34136;51.022;7.082;2023-08-31T06:28:49;13.70;1.00
48328;DHT22;34136;51.022;7.082;2023-08-31T06:31:35;13.80;1.00
48328;DHT22;34136;51.022;7.082;2023-08-31T06:34:22;13.80;1.00
48328;DHT22;34136;51.022;7.082;2023-08-31T06:37:08;13.90;1.00
48328;DHT22;34136;51.022;7.082;2023-08-31T06:39:54;13.90;1.00
48328;DHT22;34136;51.022;7.082;2023-08-31T06:42:41;13.90;1.00
48328;DHT22;34136;51.022;7.082;2023-08-31T06:45:27;14.00;1.00
48328;DHT22;34136;51.022;7.082;2023-08-31T06:48:13;14.00;1.00
48328;DHT22;34136;51.022;7.082;2023-08-31T06:50:59;14.10;1.00
48328;DHT22;34136;51.022;7.082;2023-08-31T06:53:46;14.20;1.00
48328;DHT22;34136;51.022;7.082;2023-08-31T06:56:35;14.40;1.00
48328;DHT22;34136;51.022;7.082;2023-08-31T06:59:22;14.50;1.00
48328;DHT22;34136;51.022;7.082;2023-08-31T07:02:08;14.50;1.00
48328;DHT22;34136;51.022;7.082;2023-08-31T07:04:54;14.60;1.00
48328;DHT22;34136;51.022;7.082;2023-08-31T07:07:41;14.80;1.00
48328;DHT22;34136;51.022;7.082;2023-08-31T07:10:27;14.90;1.00
48328;DHT22;34136;51.022;7.082;2023-08-31T07:13:13;15.10;1.00
48328;DHT22;34136;51.022;7.082;2023-08-31T07:16:00;15.20;1.00
48328;DHT22;34136;51.022;7.082;2023-08-31T07:18:46;15.50;99.90
48328;DHT22;34136;51.022;7.082;2023-08-31T07:21:32;15.60;99.90
48328;DHT22;34136;51.022;7.082;2023-08-31T07:24:19;15.60;99.90
48328;DHT22;34136;51.022;7.082;2023-08-31T07:27:05;15.50;99.90
48328;DHT22;34136;51.022;7.082;2023-08-31T07:29:54;15.70;99.90
48328;DHT22;34136;51.022;7.082;2023-08-31T07:32:40;16.00;99.90
48328;DHT22;34136;51.022;7.082;2023-08-31T07:35:27;16.10;99.90
48328;DHT22;34136;51.022;7.082;2023-08-31T07:38:13;16.20;99.90
48328;DHT22;34136;51.022;7.082;2023-08-31T07:41:00;16.40;99.90
48328;DHT22;34136;51.022;7.082;2023-08-31T07:43:46;16.50;99.90
48328;DHT22;34136;51.022;7.082;2023-08-31T07:46:33;16.70;99.90
48328;DHT22;34136;51.022;7.082;2023-08-31T07:49:19;16.80;99.90
48328;DHT22;34136;51.022;7.082;2023-08-31T07:52:05;16.80;99.90
48328;DHT22;34136;51.022;7.082;2023-08-31T07:54:51;16.80;99.90
48328;DHT22;34136;51.022;7.082;2023-08-31T07:57:37;17.00;99.90
48328;DHT22;34136;51.022;7.082;2023-08-31T08:00:24;17.30;99.90
48328;DHT22;34136;51.022;7.082;2023-08-31T08:03:10;17.50;99.90
48328;DHT22;34136;51.022;7.082;2023-08-31T08:05:56;17.50;99.90
48328;DHT22;34136;51.022;7.082;2023-08-31T08:08:42;17.60;99.90
48328;DHT22;34136;51.022;7.082;2023-08-31T08:11:28;17.70;99.90
48328;DHT22;34136;51.022;7.082;2023-08-31T08:14:15;17.70;99.90
48328;DHT22;34136;51.022;7.082;2023-08-31T08:17:01;17.70;99.90
48328;DHT22;34136;51.022;7.082;2023-08-31T08:19:47;17.90;99.90
48328;DHT22;34136;51.022;7.082;2023-08-31T08:22:33;18.00;99.90
48328;DHT22;34136;51.022;7.082;2023-08-31T08:25:20;18.20;99.90
48328;DHT22;34136;51.022;7.082;2023-08-31T08:28:06;18.30;99.90
48328;DHT22;34136;51.022;7.082;2023-08-31T08:30:53;18.30;99.90
48328;DHT22;34136;51.022;7.082;2023-08-31T08:33:39;18.40;99.90
48328;DHT22;34136;51.022;7.082;2023-08-31T08:36:25;18.30;99.90
48328;DHT22;34136;51.022;7.082;2023-08-31T08:39:11;18.30;99.90
48328;DHT22;34136;51.022;7.082;2023-08-31T08:41:59;18.20;99.90
48328;DHT22;34136;51.022;7.082;2023-08-31T08:44:45;18.30;99.90
48328;DHT22;34136;51.022;7.082;2023-08-31T08:47:32;18.20;99.90
48328;DHT22;34136;51.022;7.082;2023-08-31T08:50:20;18.40;99.90
48328;DHT22;34136;51.022;7.082;2023-08-31T08:53:06;18.60;99.90
48328;DHT22;34136;51.022;7.082;2023-08-31T08:55:53;18.90;99.90
48328;DHT22;34136;51.022;7.082;2023-08-31T08:58:39;19.40;99.90
48328;DHT22;34136;51.022;7.082;2023-08-31T09:01:26;19.60;99.90
48328;DHT22;34136;51.022;7.082;2023-08-31T09:04:12;19.40;99.90
48328;DHT22;34136;51.022;7.082;2023-08-31T09:06:58;19.60;99.90
48328;DHT22;34136;51.022;7.082;2023-08-31T09:09:50;19.70;99.90
48328;DHT22;34136;51.022;7.082;2023-08-31T09:12:36;19.90;99.90
48328;DHT22;34136;51.022;7.082;2023-08-31T09:15:23;19.60;99.90
48328;DHT22;34136;51.022;7.082;2023-08-31T09:18:29;19.70;99.90
48328;DHT22;34136;51.022;7.082;2023-08-31T09:21:16;19.80;99.90
48328;DHT22;34136;51.022;7.082;2023-08-31T09:24:05;19.80;99.90
48328;DHT22;34136;51.022;7.082;2023-08-31T09:26:57;20.00;99.90
48328;DHT22;34136;51.022;7.082;2023-08-31T09:29:47;20.00;99.90
48328;DHT22;34136;51.022;7.082;2023-08-31T09:32:33;20.00;99.90
48328;DHT22;34136;51.022;7.082;2023-08-31T09:35:19;20.20;99.90
48328;DHT22;34136;51.022;7.082;2023-08-31T09:38:08;20.20;99.90
48328;DHT22;34136;51.022;7.082;2023-08-31T09:41:05;20.20;99.90
48328;DHT22;34136;51.022;7.082;2023-08-31T09:43:51;20.20;99.90
48328;DHT22;34136;51.022;7.082;2023-08-31T09:46:37;20.00;99.90
48328;DHT22;34136;51.022;7.082;2023-08-31T09:49:25;19.90;99.90
48328;DHT22;34136;51.022;7.082;2023-08-31T09:52:11;19.90;99.90
48328;DHT22;34136;51.022;7.082;2023-08-31T09:54:58;19.90;99.90
48328;DHT22;34136;51.022;7.082;2023-08-31T09:57:48;19.70;99.90
48328;DHT22;34136;51.022;7.082;2023-08-31T10:00:36;19.90;99.90
48328;DHT22;34136;51.022;7.082;2023-08-31T10:03:22;20.20;99.90
48328;DHT22;34136;51.022;7.082;2023-08-31T10:06:09;20.40;99.90
48328;DHT22;34136;51.022;7.082;2023-08-31T10:08:56;20.40;99.90
48328;DHT22;34136;51.022;7.082;2023-08-31T10:11:43;20.30;99.90
48328;DHT22;34136;51.022;7.082;2023-08-31T10:14:30;20.10;99.90
48328;DHT22;34136;51.022;7.082;2023-08-31T10:17:16;20.20;99.90
48328;DHT22;34136;51.022;7.082;2023-08-31T10:20:03;20.30;99.90
48328;DHT22;34136;51.022;7.082;2023-08-31T10:22:51;20.50;99.90
48328;DHT22;34136;51.022;7.082;2023-08-31T10:28:41;20.60;99.90
48328;DHT22;34136;51.022;7.082;2023-08-31T10:31:34;20.80;99.90
48328;DHT22;34136;51.022;7.082;2023-08-31T10:34:35;20.70;99.90
48328;DHT22;34136;51.022;7.082;2023-08-31T10:37:21;20.40;99.90
48328;DHT22;34136;51.022;7.082;2023-08-31T10:40:11;20.20;99.90
48328;DHT22;34136;51.022;7.082;2023-08-31T10:43:14;20.30;99.90
48328;DHT22;34136;51.022;7.082;2023-08-31T10:46:36;20.50;99.90
48328;DHT22;34136;51.022;7.082;2023-08-31T10:49:22;20.60;99.90
48328;DHT22;34136;51.022;7.082;2023-08-31T10:52:19;20.90;99.90
48328;DHT22;34136;51.022;7.082;2023-08-31T10:55:06;21.10;99.90
48328;DHT22;34136;51.022;7.082;2023-08-31T10:57:52;21.10;99.90
48328;DHT22;34136;51.022;7.082;2023-08-31T11:00:51;21.20;99.90
48328;DHT22;34136;51.022;7.082;2023-08-31T11:03:57;21.00;99.90
48328;DHT22;34136;51.022;7.082;2023-08-31T11:06:44;20.80;99.90
48328;DHT22;34136;51.022;7.082;2023-08-31T11:09:30;20.50;99.90
48328;DHT22;34136;51.022;7.082;2023-08-31T11:12:16;20.30;99.90
48328;DHT22;34136;51.022;7.082;2023-08-31T11:15:03;20.30;99.90
48328;DHT22;34136;51.022;7.082;2023-08-31T11:17:50;20.50;99.90
48328;DHT22;34136;51.022;7.082;2023-08-31T11:20:50;20.50;99.90
48328;DHT22;34136;51.022;7.082;2023-08-31T11:23:36;20.70;99.90
48328;DHT22;34136;51.022;7.082;2023-08-31T11:26:22;20.70;99.90
48328;DHT22;34136;51.022;7.082;2023-08-31T11:29:10;20.80;99.90
48328;DHT22;34136;51.022;7.082;2023-08-31T11:31:58;20.80;99.90
48328;DHT22;34136;51.022;7.082;2023-08-31T11:34:45;20.80;99.90
48328;DHT22;34136;51.022;7.082;2023-08-31T11:37:32;20.80;99.90
48328;DHT22;34136;51.022;7.082;2023-08-31T11:40:19;21.00;99.90
48328;DHT22;34136;51.022;7.082;2023-08-31T11:43:15;21.10;99.90
48328;DHT22;34136;51.022;7.082;2023-08-31T11:46:02;21.30;99.90
48328;DHT22;34136;51.022;7.082;2023-08-31T11:48:48;21.50;99.90
48328;DHT22;34136;51.022;7.082;2023-08-31T11:51:35;21.70;99.90
48328;DHT22;34136;51.022;7.082;2023-08-31T11:54:25;21.70;99.90
48328;DHT22;34136;51.022;7.082;2023-08-31T11:57:11;21.60;99.90
48328;DHT22;34136;51.022;7.082;2023-08-31T11:59:57;21.60;99.90
48328;DHT22;34136;51.022;7.082;2023-08-31T12:02:44;21.60;99.90
48328;DHT22;34136;51.022;7.082;2023-08-31T12:05:47;21.70;99.90
48328;DHT22;34136;51.022;7.082;2023-08-31T12:08:33;21.80;99.90
48328;DHT22;34136;51.022;7.082;2023-08-31T12:11:25;21.90;99.90
48328;DHT22;34136;51.022;7.082;2023-08-31T12:14:26;21.90;99.90
48328;DHT22;34136;51.022;7.082;2023-08-31T12:17:13;22.10;99.90
48328;DHT22;34136;51.022;7.082;2023-08-31T12:20:05;21.80;99.90
48328;DHT22;34136;51.022;7.082;2023-08-31T12:22:52;21.90;99.90
48328;DHT22;34136;51.022;7.082;2023-08-31T12:25:38;21.90;99.90
48328;DHT22;34136;51.022;7.082;2023-08-31T12:28:26;22.00;99.90
48328;DHT22;34136;51.022;7.082;2023-08-31T12:31:13;22.40;99.90
48328;DHT22;34136;51.022;7.082;2023-08-31T12:34:00;22.50;99.90
48328;DHT22;34136;51.022;7.082;2023-08-31T12:36:46;22.60;99.90
48328;DHT22;34136;51.022;7.082;2023-08-31T12:39:32;22.60;99.90
48328;DHT22;34136;51.022;7.082;2023-08-31T12:42:18;22.60;99.90
48328;DHT22;34136;51.022;7.082;2023-08-31T12:45:05;22.20;99.90
48328;DHT22;34136;51.022;7.082;2023-08-31T12:47:54;21.80;99.90
48328;DHT22;34136;51.022;7.082;2023-08-31T12:50:40;21.70;99.90
48328;DHT22;34136;51.022;7.082;2023-08-31T12:53:27;21.70;99.90
48328;DHT22;34136;51.022;7.082;2023-08-31T12:56:13;21.60;99.90
48328;DHT22;34136;51.022;7.082;2023-08-31T12:59:39;21.40;99.90
48328;DHT22;34136;51.022;7.082;2023-08-31T13:02:37;21.10;99.90
48328;DHT22;34136;51.022;7.082;2023-08-31T13:05:24;20.80;99.90
48328;DHT22;34136;51.022;7.082;2023-08-31T13:08:10;20.90;99.90
48328;DHT22;34136;51.022;7.082;2023-08-31T13:10:56;21.10;99.90
48328;DHT22;34136;51.022;7.082;2023-08-31T13:13:42;21.30;99.90
48328;DHT22;34136;51.022;7.082;2023-08-31T13:16:28;21.40;99.90
48328;DHT22;34136;51.022;7.082;2023-08-31T13:19:15;21.30;99.90
48328;DHT22;34136;51.022;7.082;2023-08-31T13:22:01;21.20;99.90
48328;DHT22;34136;51.022;7.082;2023-08-31T13:24:47;21.20;99.90
48328;DHT22;34136;51.022;7.082;2023-08-31T13:27:34;21.10;99.90
48328;DHT22;34136;51.022;7.082;2023-08-31T13:30:20;21.30;99.90
48328;DHT22;34136;51.022;7.082;2023-08-31T13:33:06;21.50;99.90
48328;DHT22;34136;51.022;7.082;2023-08-31T13:35:53;21.60;99.90
48328;DHT22;34136;51.022;7.082;2023-08-31T13:38:39;21.50;99.90
48328;DHT22;34136;51.022;7.082;2023-08-31T13:41:25;21.50;99.90
48328;DHT22;34136;51.022;7.082;2023-08-31T13:44:11;21.60;99.90
48328;DHT22;34136;51.022;7.082;2023-08-31T13:46:58;21.30;99.90
48328;DHT22;34136;51.022;7.082;2023-08-31T13:49:44;21.20;99.90
48328;DHT22;34136;51.022;7.082;2023-08-31T13:52:30;21.10;99.90
48328;DHT22;34136;51.022;7.082;2023-08-31T13:55:17;21.00;99.90
48328;DHT22;34136;51.022;7.082;2023-08-31T13:58:07;21.20;99.90
48328;DHT22;34136;51.022;7.082;2023-08-31T14:00:53;21.20;99.90
48328;DHT22;34136;51.022;7.082;2023-08-31T14:03:39;21.50;99.90
48328;DHT22;34136;51.022;7.082;2023-08-31T14:06:25;21.70;99.90
48328;DHT22;34136;51.022;7.082;2023-08-31T14:09:12;22.00;99.90
48328;DHT22;34136;51.022;7.082;2023-08-31T14:11:58;22.10;99.90
48328;DHT22;34136;51.022;7.082;2023-08-31T14:14:44;21.90;99.90
48328;DHT22;34136;51.022;7.082;2023-08-31T14:17:31;22.10;99.90
48328;DHT22;34136;51.022;7.082;2023-08-31T14:20:17;22.00;99.90
48328;DHT22;34136;51.022;7.082;2023-08-31T14:23:05;22.10;99.90
48328;DHT22;34136;51.022;7.082;2023-08-31T14:25:51;22.30;99.90
48328;DHT22;34136;51.022;7.082;2023-08-31T14:28:37;22.20;99.90
48328;DHT22;34136;51.022;7.082;2023-08-31T14:31:59;22.00;99.90
48328;DHT22;34136;51.022;7.082;2023-08-31T14:34:45;22.00;99.90
48328;DHT22;34136;51.022;7.082;2023-08-31T14:37:42;21.90;99.90
48328;DHT22;34136;51.022;7.082;2023-08-31T14:40:31;22.10;99.90
48328;DHT22;34136;51.022;7.082;2023-08-31T14:43:33;22.10;99.90
48328;DHT22;34136;51.022;7.082;2023-08-31T14:46:19;22.20;99.90
48328;DHT22;34136;51.022;7.082;2023-08-31T14:49:08;22.10;99.90
48328;DHT22;34136;51.022;7.082;2023-08-31T14:52:03;22.10;99.90
48328;DHT22;34136;51.022;7.082;2023-08-31T14:54:52;21.90;99.90
48328;DHT22;34136;51.022;7.082;2023-08-31T14:57:39;21.90;99.90
48328;DHT22;34136;51.022;7.082;2023-08-31T15:00:30;21.90;99.90
48328;DHT22;34136;51.022;7.082;2023-08-31T15:03:21;22.00;99.90
48328;DHT22;34136;51.022;7.082;2023-08-31T15:06:11;22.10;99.90
48328;DHT22;34136;51.022;7.082;2023-08-31T15:09:03;22.10;99.90
48328;DHT22;34136;51.022;7.082;2023-08-31T15:11:55;22.00;99.90
48328;DHT22;34136;51.022;7.082;2023-08-31T15:14:41;21.80;99.90
48328;DHT22;34136;51.022;7.082;2023-08-31T15:17:33;21.90;99.90
48328;DHT22;34136;51.022;7.082;2023-08-31T15:20:20;21.80;99.90
48328;DHT22;34136;51.022;7.082;2023-08-31T15:23:08;21.80;99.90
48328;DHT22;34136;51.022;7.082;2023-08-31T15:25:59;21.50;99.90
48328;DHT22;34136;51.022;7.082;2023-08-31T15:28:46;21.30;99.90
48328;DHT22;34136;51.022;7.082;2023-08-31T15:31:32;21.20;99.90
48328;DHT22;34136;51.022;7.082;2023-08-31T15:34:23;21.10;99.90
48328;DHT22;34136;51.022;7.082;2023-08-31T15:37:14;20.90;99.90
48328;DHT22;34136;51.022;7.082;2023-08-31T15:40:03;20.90;99.90
48328;DHT22;34136;51.022;7.082;2023-08-31T15:42:50;20.90;99.90
48328;DHT22;34136;51.022;7.082;2023-08-31T15:45:45;21.10;99.90
48328;DHT22;34136;51.022;7.082;2023-08-31T15:48:31;21.30;99.90
48328;DHT22;34136;51.022;7.082;2023-08-31T15:51:48;21.20;99.90
48328;DHT22;34136;51.022;7.082;2023-08-31T15:54:35;21.30;99.90
48328;DHT22;34136;51.022;7.082;2023-08-31T15:57:21;21.50;99.90
48328;DHT22;34136;51.022;7.082;2023-08-31T16:00:07;21.50;99.90
48328;DHT22;34136;51.022;7.082;2023-08-31T16:02:53;21.50;99.90
48328;DHT22;34136;51.022;7.082;2023-08-31T16:05:41;21.40;99.90
48328;DHT22;34136;51.022;7.082;2023-08-31T16:08:27;21.40;99.90
48328;DHT22;34136;51.022;7.082;2023-08-31T16:11:14;21.50;99.90
48328;DHT22;34136;51.022;7.082;2023-08-31T16:14:00;21.50;99.90
48328;DHT22;34136;51.022;7.082;2023-08-31T16:16:46;21.50;99.90
48328;DHT22;34136;51.022;7.082;2023-08-31T16:19:32;21.30;99.90
48328;DHT22;34136;51.022;7.082;2023-08-31T16:22:19;21.30;99.90
48328;DHT22;34136;51.022;7.082;2023-08-31T16:25:05;21.10;99.90
48328;DHT22;34136;51.022;7.082;2023-08-31T16:27:51;21.00;99.90
48328;DHT22;34136;51.022;7.082;2023-08-31T16:30:37;20.90;99.90
48328;DHT22;34136;51.022;7.082;2023-08-31T16:33:23;20.90;99.90
48328;DHT22;34136;51.022;7.082;2023-08-31T16:36:09;20.90;99.90
48328;DHT22;34136;51.022;7.082;2023-08-31T16:38:55;20.70;99.90
48328;DHT22;34136;51.022;7.082;2023-08-31T16:41:41;20.70;99.90
48328;DHT22;34136;51.022;7.082;2023-08-31T16:44:27;20.70;99.90
48328;DHT22;34136;51.022;7.082;2023-08-31T16:47:13;20.50;99.90
48328;DHT22;34136;51.022;7.082;2023-08-31T16:49:59;20.40;99.90
48328;DHT22;34136;51.022;7.082;2023-08-31T16:55:27;20.60;99.90
48328;DHT22;34136;51.022;7.082;2023-08-31T16:58:13;20.70;99.90
48328;DHT22;34136;51.022;7.082;2023-08-31T17:00:59;20.60;99.90
48328;DHT22;34136;51.022;7.082;2023-08-31T17:03:45;20.50;99.90
48328;DHT22;34136;51.022;7.082;2023-08-31T17:06:31;20.50;99.90
48328;DHT22;34136;51.022;7.082;2023-08-31T17:09:17;20.40;99.90
48328;DHT22;34136;51.022;7.082;2023-08-31T17:12:04;20.50;99.90
48328;DHT22;34136;51.022;7.082;2023-08-31T17:14:50;20.50;99.90
48328;DHT22;34136;51.022;7.082;2023-08-31T17:17:36;20.40;99.90
48328;DHT22;34136;51.022;7.082;2023-08-31T17:20:22;20.40;99.90
48328;DHT22;34136;51.022;7.082;2023-08-31T17:23:08;20.50;99.90
48328;DHT22;34136;51.022;7.082;2023-08-31T17:25:54;20.50;99.90
48328;DHT22;34136;51.022;7.082;2023-08-31T17:28:41;20.60;99.90
48328;DHT22;34136;51.022;7.082;2023-08-31T17:31:27;20.60;99.90
48328;DHT22;34136;51.022;7.082;2023-08-31T17:34:13;20.60;99.90
48328;DHT22;34136;51.022;7.082;2023-08-31T17:36:59;20.60;99.90
48328;DHT22;34136;51.022;7.082;2023-08-31T17:39:46;20.60;99.90
48328;DHT22;34136;51.022;7.082;2023-08-31T17:42:33;20.50;99.90
48328;DHT22;34136;51.022;7.082;2023-08-31T17:45:20;20.40;99.90
48328;DHT22;34136;51.022;7.082;2023-08-31T17:48:06;20.40;99.90
48328;DHT22;34136;51.022;7.082;2023-08-31T17:50:53;20.40;99.90
48328;DHT22;34136;51.022;7.082;2023-08-31T17:53:39;20.40;99.90
48328;DHT22;34136;51.022;7.082;2023-08-31T17:56:28;20.30;99.90
48328;DHT22;34136;51.022;7.082;2023-08-31T17:59:14;20.30;99.90